createdAt,value
2023-05-03T00:00:28.350Z,4.20
2023-05-03T00:02:57.246Z,4.30
2023-05-03T00:05:26.209Z,4.50
2023-05-03T00:07:52.731Z,4.50
2023-05-03T00:10:19.400Z,4.50
2023-05-03T00:12:45.894Z,4.30
2023-05-03T00:15:12.419Z,4.10
2023-05-03T00:17:39.060Z,4.00
2023-05-03T00:20:07.022Z,3.90
2023-05-03T00:22:33.771Z,3.80
2023-05-03T00:25:00.842Z,3.80
2023-05-03T00:27:27.603Z,3.70
2023-05-03T00:29:54.095Z,3.60
2023-05-03T00:32:22.635Z,3.50
2023-05-03T00:34:56.158Z,3.50
2023-05-03T00:37:24.039Z,3.40
2023-05-03T00:39:50.825Z,3.30
2023-05-03T00:42:17.421Z,3.30
2023-05-03T00:44:44.063Z,3.30
2023-05-03T00:47:10.911Z,3.20
2023-05-03T00:49:38.366Z,3.10
2023-05-03T00:52:06.540Z,3.10
2023-05-03T00:54:35.016Z,3.10
2023-05-03T00:57:01.907Z,3.00
2023-05-03T00:59:29.193Z,2.90
2023-05-03T01:01:55.889Z,2.80
2023-05-03T01:04:23.405Z,2.70
2023-05-03T01:07:25.838Z,2.70
2023-05-03T01:10:33.400Z,2.60
2023-05-03T01:13:08.486Z,2.60
2023-05-03T01:15:44.754Z,2.80
2023-05-03T01:18:15.897Z,2.70
2023-05-03T01:20:47.147Z,2.60
2023-05-03T01:23:25.251Z,2.50
2023-05-03T01:25:54.273Z,2.70
2023-05-03T01:28:21.328Z,2.70
2023-05-03T01:30:50.180Z,2.50
2023-05-03T01:33:40.506Z,2.50
2023-05-03T01:36:31.854Z,2.50
2023-05-03T01:39:28.756Z,2.50
2023-05-03T01:41:57.011Z,2.40
2023-05-03T01:44:24.631Z,2.30
2023-05-03T01:46:51.180Z,2.30
2023-05-03T01:49:17.777Z,2.20
2023-05-03T01:51:44.272Z,2.20
2023-05-03T01:54:11.131Z,2.20
2023-05-03T01:56:37.904Z,2.20
2023-05-03T01:59:04.975Z,2.20
2023-05-03T02:01:31.582Z,2.20
2023-05-03T02:03:58.260Z,2.10
2023-05-03T02:06:26.033Z,2.10
2023-05-03T02:08:53.521Z,2.10
2023-05-03T02:11:21.375Z,2.20
2023-05-03T02:13:51.010Z,2.50
2023-05-03T02:16:18.643Z,2.50
2023-05-03T02:18:45.425Z,2.30
2023-05-03T02:21:12.963Z,2.20
2023-05-03T02:23:39.716Z,2.10
2023-05-03T02:26:06.888Z,2.00
2023-05-03T02:28:34.365Z,2.00
2023-05-03T02:31:01.091Z,1.90
2023-05-03T02:33:27.963Z,1.80
2023-05-03T02:35:54.580Z,1.90
2023-05-03T02:38:21.172Z,1.80
2023-05-03T02:40:47.678Z,1.80
2023-05-03T02:43:14.211Z,1.70
2023-05-03T02:45:40.750Z,1.80
2023-05-03T02:48:07.294Z,1.80
2023-05-03T02:50:33.835Z,1.80
2023-05-03T02:53:00.454Z,1.80
2023-05-03T02:55:27.060Z,1.90
2023-05-03T02:57:53.604Z,1.90
2023-05-03T03:00:20.217Z,1.90
2023-05-03T03:02:46.823Z,1.90
2023-05-03T03:05:13.398Z,1.90
2023-05-03T03:07:40.352Z,1.80
2023-05-03T03:10:07.956Z,1.70
2023-05-03T03:12:36.229Z,1.70
2023-05-03T03:15:03.796Z,1.70
2023-05-03T03:17:31.190Z,1.70
2023-05-03T03:19:58.350Z,1.70
2023-05-03T03:22:27.821Z,1.70
2023-05-03T03:24:54.315Z,1.70
2023-05-03T03:27:23.018Z,1.70
2023-05-03T03:29:49.769Z,1.70
2023-05-03T03:32:16.552Z,1.70
2023-05-03T03:34:43.055Z,1.70
2023-05-03T03:37:09.637Z,1.70
2023-05-03T03:39:36.167Z,1.80
2023-05-03T03:42:02.932Z,1.70
2023-05-03T03:44:29.555Z,1.80
2023-05-03T03:46:56.319Z,1.80
2023-05-03T03:49:22.940Z,1.80
2023-05-03T03:51:49.505Z,1.90
2023-05-03T03:54:16.247Z,1.80
2023-05-03T03:56:42.817Z,1.80
2023-05-03T03:59:09.598Z,1.90
2023-05-03T04:01:36.161Z,1.90
2023-05-03T04:04:02.863Z,1.90
2023-05-03T04:06:29.588Z,1.90
2023-05-03T04:08:56.138Z,1.90
2023-05-03T04:11:23.671Z,1.80
2023-05-03T04:13:50.464Z,1.70
2023-05-03T04:16:17.162Z,1.70
2023-05-03T04:18:43.788Z,1.60
2023-05-03T04:21:10.839Z,1.60
2023-05-03T04:23:38.179Z,1.60
2023-05-03T04:26:05.220Z,1.60
2023-05-03T04:28:32.041Z,1.70
2023-05-03T04:30:58.666Z,1.90
2023-05-03T04:33:26.832Z,2.10
2023-05-03T04:35:53.374Z,2.10
2023-05-03T04:38:20.371Z,2.10
2023-05-03T04:40:46.994Z,2.20
2023-05-03T04:43:13.613Z,2.20
2023-05-03T04:45:40.790Z,2.20
2023-05-03T04:48:07.836Z,2.20
2023-05-03T04:50:34.522Z,2.40
2023-05-03T04:53:01.431Z,2.50
2023-05-03T04:55:27.942Z,2.60
2023-05-03T04:57:55.667Z,2.70
2023-05-03T05:00:23.267Z,2.80
2023-05-03T05:02:49.832Z,2.80
2023-05-03T05:05:18.100Z,2.90
2023-05-03T05:07:46.247Z,3.10
2023-05-03T05:10:12.820Z,3.10
2023-05-03T05:12:39.386Z,3.20
2023-05-03T05:15:06.814Z,3.30
2023-05-03T05:17:33.441Z,3.60
2023-05-03T05:20:00.327Z,3.70
2023-05-03T05:22:27.159Z,3.90
2023-05-03T05:24:53.664Z,4.00
2023-05-03T05:27:20.287Z,4.10
2023-05-03T05:29:46.816Z,4.20
2023-05-03T05:32:13.931Z,4.30
2023-05-03T05:34:45.095Z,4.40
2023-05-03T05:37:12.394Z,4.40
2023-05-03T05:39:38.953Z,4.50
2023-05-03T05:42:05.537Z,4.80
2023-05-03T05:44:32.118Z,4.90
2023-05-03T05:46:58.772Z,4.90
2023-05-03T05:49:25.456Z,5.10
2023-05-03T05:51:51.983Z,5.20
2023-05-03T05:54:18.535Z,5.40
2023-05-03T05:56:45.049Z,5.50
2023-05-03T05:59:11.603Z,5.50
2023-05-03T06:01:41.629Z,5.60
2023-05-03T06:04:08.435Z,5.70
2023-05-03T06:06:35.160Z,5.70
2023-05-03T06:09:07.033Z,5.80
2023-05-03T06:11:43.554Z,5.90
2023-05-03T06:14:10.249Z,6.10
2023-05-03T06:16:37.490Z,6.20
2023-05-03T06:19:04.929Z,6.20
2023-05-03T06:21:31.558Z,6.30
2023-05-03T06:23:58.253Z,6.50
2023-05-03T06:26:24.804Z,6.70
2023-05-03T06:28:52.270Z,7.00
2023-05-03T06:31:18.872Z,7.00
2023-05-03T06:33:45.896Z,7.20
2023-05-03T06:36:12.843Z,7.30
2023-05-03T06:38:39.567Z,7.30
2023-05-03T06:41:06.082Z,7.70
2023-05-03T06:43:32.627Z,7.80
2023-05-03T06:45:59.202Z,7.80
2023-05-03T06:48:25.977Z,8.00
2023-05-03T06:50:52.787Z,8.20
2023-05-03T06:53:19.294Z,8.10
2023-05-03T06:55:46.352Z,8.60
2023-05-03T06:58:12.928Z,9.20
2023-05-03T07:00:39.577Z,9.70
2023-05-03T07:03:06.634Z,10.00
2023-05-03T07:05:34.072Z,10.40
2023-05-03T07:08:00.732Z,10.90
2023-05-03T07:10:31.382Z,11.80
2023-05-03T07:12:58.217Z,11.90
2023-05-03T07:15:24.761Z,11.90
2023-05-03T07:17:51.373Z,13.20
2023-05-03T07:20:18.035Z,13.10
2023-05-03T07:22:44.799Z,13.20
2023-05-03T07:25:12.451Z,13.60
2023-05-03T07:27:39.119Z,14.10
2023-05-03T07:30:06.492Z,14.10
2023-05-03T07:32:33.238Z,13.50
2023-05-03T07:34:59.875Z,13.10
2023-05-03T07:37:27.682Z,13.50
2023-05-03T07:39:54.204Z,13.80
2023-05-03T07:42:21.169Z,13.60
2023-05-03T07:44:47.702Z,13.50
2023-05-03T07:47:14.220Z,14.10
2023-05-03T07:49:40.820Z,14.10
2023-05-03T07:52:07.356Z,14.70
2023-05-03T07:54:33.892Z,13.90
2023-05-03T07:57:00.697Z,13.90
2023-05-03T07:59:27.281Z,14.40
2023-05-03T08:01:53.891Z,14.40
2023-05-03T08:04:20.895Z,13.90
2023-05-03T08:06:47.666Z,14.50
2023-05-03T08:09:14.617Z,14.60
2023-05-03T08:11:43.784Z,14.60
2023-05-03T08:14:11.277Z,14.50
2023-05-03T08:16:38.011Z,14.60
2023-05-03T08:19:05.025Z,15.10
2023-05-03T08:21:33.144Z,15.70
2023-05-03T08:24:00.727Z,15.40
2023-05-03T08:26:28.734Z,15.30
2023-05-03T08:28:55.322Z,15.00
2023-05-03T08:31:21.861Z,15.60
2023-05-03T08:33:48.434Z,16.40
2023-05-03T08:36:15.278Z,16.80
2023-05-03T08:38:41.835Z,16.10
2023-05-03T08:41:25.956Z,16.80
2023-05-03T08:43:55.211Z,16.00
2023-05-03T08:46:22.570Z,15.80
2023-05-03T08:48:51.098Z,15.20
2023-05-03T08:51:19.117Z,16.30
2023-05-03T08:53:46.247Z,16.10
2023-05-03T08:56:19.982Z,16.60
2023-05-03T08:58:46.501Z,16.80
2023-05-03T09:01:14.335Z,17.80
2023-05-03T09:03:49.685Z,16.70
2023-05-03T09:06:21.780Z,15.90
2023-05-03T09:08:48.516Z,15.80
2023-05-03T09:11:29.332Z,16.00
2023-05-03T09:14:17.182Z,15.70
2023-05-03T09:16:46.255Z,16.30
2023-05-03T09:19:14.625Z,16.00
2023-05-03T09:21:43.573Z,16.30
2023-05-03T09:24:15.257Z,17.00
2023-05-03T09:26:42.427Z,17.40
2023-05-03T09:29:09.635Z,17.70
2023-05-03T09:31:37.244Z,17.40
2023-05-03T09:34:21.910Z,16.40
2023-05-03T09:36:48.529Z,16.90
2023-05-03T09:39:19.785Z,17.20
2023-05-03T09:41:47.194Z,17.20
2023-05-03T09:44:13.861Z,17.40
2023-05-03T09:47:00.475Z,18.00
2023-05-03T09:49:27.040Z,17.40
2023-05-03T09:51:54.575Z,17.20
2023-05-03T09:54:23.627Z,18.10
2023-05-03T09:56:51.905Z,18.50
2023-05-03T09:59:18.916Z,18.70
2023-05-03T10:01:45.834Z,19.10
2023-05-03T10:04:13.782Z,19.30
2023-05-03T10:06:44.186Z,18.90
2023-05-03T10:09:42.957Z,18.40
2023-05-03T10:12:12.379Z,18.60
2023-05-03T10:14:44.427Z,19.10
2023-05-03T10:17:31.828Z,20.00
2023-05-03T10:20:24.674Z,20.20
2023-05-03T10:23:06.464Z,20.30
2023-05-03T10:25:36.198Z,20.20
2023-05-03T10:28:10.119Z,20.40
2023-05-03T10:30:38.512Z,19.30
2023-05-03T10:33:11.303Z,18.70
2023-05-03T10:35:42.958Z,18.90
2023-05-03T10:38:17.513Z,20.30
2023-05-03T10:40:44.636Z,20.30
2023-05-03T10:43:29.463Z,20.40
2023-05-03T10:46:00.251Z,20.00
2023-05-03T10:48:28.486Z,20.00
2023-05-03T10:50:56.429Z,20.30
2023-05-03T10:53:36.339Z,21.50
2023-05-03T10:56:08.436Z,22.50
2023-05-03T10:58:42.065Z,22.20
2023-05-03T11:01:10.897Z,22.00
2023-05-03T11:04:07.927Z,22.50
2023-05-03T11:06:38.771Z,22.20
2023-05-03T11:09:08.143Z,22.20
2023-05-03T11:11:37.042Z,21.70
2023-05-03T11:14:03.825Z,20.50
2023-05-03T11:16:30.967Z,21.60
2023-05-03T11:18:59.257Z,21.60
2023-05-03T11:21:26.104Z,22.20
2023-05-03T11:23:52.709Z,22.90
2023-05-03T11:26:23.406Z,23.80
2023-05-03T11:28:49.936Z,23.40
2023-05-03T11:31:16.541Z,23.00
2023-05-03T11:33:43.395Z,22.60
2023-05-03T11:36:10.351Z,23.50
2023-05-03T11:38:39.860Z,23.60
2023-05-03T11:41:16.679Z,24.20
2023-05-03T11:43:45.228Z,23.90
2023-05-03T11:46:15.164Z,25.40
2023-05-03T11:48:44.621Z,26.00
2023-05-03T11:51:12.352Z,25.90
2023-05-03T11:53:40.879Z,26.10
2023-05-03T11:56:12.347Z,25.10
2023-05-03T11:58:59.542Z,24.80
2023-05-03T12:01:28.489Z,24.40
2023-05-03T12:03:59.874Z,23.80
2023-05-03T12:06:28.813Z,24.10
2023-05-03T12:08:57.753Z,25.30
2023-05-03T12:11:27.143Z,25.70
2023-05-03T12:14:02.202Z,24.40
2023-05-03T12:16:45.781Z,24.40
2023-05-03T12:19:13.930Z,25.20
2023-05-03T12:22:03.999Z,24.70
2023-05-03T12:24:34.409Z,23.70
2023-05-03T12:27:02.703Z,23.80
2023-05-03T12:29:34.208Z,22.90
2023-05-03T12:32:03.165Z,23.70
2023-05-03T12:34:34.712Z,23.30
2023-05-03T12:37:04.755Z,23.60
2023-05-03T12:39:32.965Z,25.20
2023-05-03T12:42:07.217Z,24.80
2023-05-03T12:44:35.461Z,24.00
2023-05-03T12:47:03.875Z,24.90
2023-05-03T12:49:31.107Z,25.50
2023-05-03T12:52:18.651Z,25.80
2023-05-03T12:54:48.943Z,24.70
2023-05-03T12:57:19.317Z,23.80
2023-05-03T12:59:53.564Z,23.50
2023-05-03T13:04:58.527Z,24.80
2023-05-03T13:07:31.731Z,26.60
2023-05-03T13:12:30.631Z,26.90
2023-05-03T13:14:57.183Z,25.80
2023-05-03T13:17:23.910Z,24.10
2023-05-03T13:19:52.139Z,23.10
2023-05-03T13:22:19.049Z,24.50
2023-05-03T13:24:47.186Z,24.50
2023-05-03T13:27:14.532Z,24.50
2023-05-03T13:29:41.830Z,23.40
2023-05-03T13:32:09.210Z,23.80
2023-05-03T13:34:36.393Z,24.20
2023-05-03T13:37:04.130Z,24.60
2023-05-03T13:39:30.926Z,24.30
2023-05-03T13:41:57.552Z,25.30
2023-05-03T13:44:25.284Z,23.30
2023-05-03T13:46:52.669Z,22.30
2023-05-03T13:49:19.648Z,23.10
2023-05-03T13:51:46.485Z,23.40
2023-05-03T13:54:13.061Z,24.90
2023-05-03T13:56:41.463Z,24.80
2023-05-03T13:59:11.190Z,24.00
2023-05-03T14:01:38.222Z,25.30
2023-05-03T14:04:05.715Z,26.70
2023-05-03T14:06:33.653Z,27.30
2023-05-03T14:09:01.322Z,26.90
2023-05-03T14:11:29.931Z,26.10
2023-05-03T14:13:57.987Z,26.70
2023-05-03T14:16:39.946Z,27.40
2023-05-03T14:19:09.924Z,26.70
2023-05-03T14:21:36.713Z,26.00
2023-05-03T14:24:03.439Z,24.60
2023-05-03T14:26:30.119Z,25.50
2023-05-03T14:28:56.885Z,25.70
2023-05-03T14:31:23.709Z,26.60
2023-05-03T14:33:50.521Z,27.60
2023-05-03T14:36:17.220Z,27.90
2023-05-03T14:38:45.136Z,27.80
2023-05-03T14:41:11.650Z,26.10
2023-05-03T14:43:38.229Z,24.50
2023-05-03T14:46:04.856Z,24.70
2023-05-03T14:48:31.383Z,25.80
2023-05-03T14:50:57.926Z,26.90
2023-05-03T14:53:24.487Z,26.00
2023-05-03T14:55:51.289Z,26.80
2023-05-03T14:58:18.427Z,25.90
2023-05-03T15:00:45.055Z,25.00
2023-05-03T15:03:12.469Z,24.70
2023-05-03T15:05:43.446Z,25.70
2023-05-03T15:08:10.558Z,25.80
2023-05-03T15:10:40.544Z,26.60
2023-05-03T15:13:07.568Z,26.50
2023-05-03T15:15:34.299Z,27.80
2023-05-03T15:18:00.956Z,28.20
2023-05-03T15:20:27.521Z,27.40
2023-05-03T15:22:54.013Z,26.80
2023-05-03T15:25:20.728Z,27.10
2023-05-03T15:27:47.342Z,27.80
2023-05-03T15:30:15.177Z,27.40
2023-05-03T15:32:41.766Z,27.90
2023-05-03T15:35:09.050Z,28.60
2023-05-03T15:37:37.284Z,28.00
2023-05-03T15:40:05.604Z,28.40
2023-05-03T15:42:32.674Z,28.10
2023-05-03T15:44:59.314Z,28.90
2023-05-03T15:47:26.726Z,29.40
2023-05-03T15:49:53.494Z,27.90
2023-05-03T15:52:21.402Z,27.60
2023-05-03T15:54:47.948Z,27.90
2023-05-03T15:57:14.852Z,27.70
2023-05-03T15:59:41.517Z,28.30
2023-05-03T16:02:08.731Z,27.30
2023-05-03T16:04:37.280Z,27.70
2023-05-03T16:07:04.453Z,27.10
2023-05-03T16:09:30.983Z,27.50
2023-05-03T16:11:58.960Z,27.30
2023-05-03T16:14:26.338Z,27.70
2023-05-03T16:16:53.973Z,28.10
2023-05-03T16:19:21.390Z,28.30
2023-05-03T16:21:47.974Z,25.70
2023-05-03T16:24:14.781Z,25.30
2023-05-03T16:26:41.472Z,26.10
2023-05-03T16:29:08.239Z,25.80
2023-05-03T16:31:34.988Z,25.90
2023-05-03T16:34:02.504Z,26.40
2023-05-03T16:36:28.988Z,26.50
2023-05-03T16:38:55.507Z,26.90
2023-05-03T16:41:22.005Z,27.30
2023-05-03T16:43:48.511Z,27.80
2023-05-03T16:46:15.727Z,27.40
2023-05-03T16:48:42.568Z,27.30
2023-05-03T16:51:09.148Z,27.60
2023-05-03T16:53:36.430Z,26.90
2023-05-03T16:56:03.273Z,26.70
2023-05-03T16:58:29.755Z,26.60
2023-05-03T17:00:56.559Z,26.70
2023-05-03T17:03:23.280Z,26.40
2023-05-03T17:05:49.898Z,26.90
2023-05-03T17:08:16.495Z,26.30
2023-05-03T17:10:44.720Z,25.70
2023-05-03T17:13:11.544Z,25.80
2023-05-03T17:15:38.360Z,25.80
2023-05-03T17:18:05.274Z,25.80
2023-05-03T17:20:32.858Z,26.00
2023-05-03T17:22:59.400Z,25.60
2023-05-03T17:25:26.472Z,25.70
2023-05-03T17:27:54.089Z,25.30
2023-05-03T17:30:21.580Z,25.00
2023-05-03T17:32:48.568Z,24.70
2023-05-03T17:35:15.459Z,24.30
2023-05-03T17:37:42.012Z,24.30
2023-05-03T17:40:09.028Z,24.40
2023-05-03T17:42:35.760Z,24.00
2023-05-03T17:45:04.029Z,24.00
2023-05-03T17:47:31.472Z,23.90
2023-05-03T17:49:58.100Z,23.30
2023-05-03T17:52:24.670Z,22.90
2023-05-03T17:54:52.198Z,22.40
2023-05-03T17:57:20.450Z,21.70
2023-05-03T17:59:48.468Z,21.30
2023-05-03T18:02:15.200Z,20.40
2023-05-03T18:04:41.788Z,19.90
2023-05-03T18:07:08.370Z,19.30
2023-05-03T18:09:35.130Z,18.80
2023-05-03T18:12:03.352Z,18.40
2023-05-03T18:14:30.178Z,18.00
2023-05-03T18:16:56.754Z,17.60
2023-05-03T18:19:23.765Z,17.30
2023-05-03T18:21:50.403Z,17.00
2023-05-03T18:24:16.922Z,16.80
2023-05-03T18:26:43.599Z,16.50
2023-05-03T18:29:10.178Z,16.30
2023-05-03T18:31:36.858Z,16.10
2023-05-03T18:34:03.685Z,15.90
2023-05-03T18:36:31.213Z,15.60
2023-05-03T18:38:57.778Z,15.50
2023-05-03T18:41:24.319Z,15.20
2023-05-03T18:43:51.885Z,15.00
2023-05-03T18:46:19.511Z,14.80
2023-05-03T18:48:49.532Z,14.60
2023-05-03T18:51:16.508Z,14.40
2023-05-03T18:53:43.500Z,14.20
2023-05-03T18:56:10.355Z,14.00
2023-05-03T18:58:37.067Z,13.80
2023-05-03T19:01:04.991Z,13.60
2023-05-03T19:03:31.881Z,13.50
2023-05-03T19:06:03.807Z,13.30
2023-05-03T19:08:33.518Z,13.10
2023-05-03T19:11:08.646Z,13.20
2023-05-03T19:13:35.944Z,13.00
2023-05-03T19:16:06.138Z,12.90
2023-05-03T19:18:32.694Z,12.80
2023-05-03T19:21:02.654Z,12.70
2023-05-03T19:23:29.232Z,12.60
2023-05-03T19:25:56.493Z,12.50
2023-05-03T19:28:23.236Z,12.40
2023-05-03T19:30:52.606Z,12.30
2023-05-03T19:33:20.156Z,12.20
2023-05-03T19:35:46.870Z,12.10
2023-05-03T19:38:14.174Z,12.10
2023-05-03T19:40:41.213Z,11.90
2023-05-03T19:43:07.937Z,11.90
2023-05-03T19:45:34.433Z,11.80
2023-05-03T19:48:01.297Z,11.80
2023-05-03T19:50:27.866Z,11.70
2023-05-03T19:52:54.570Z,11.50
2023-05-03T19:55:21.159Z,11.40
2023-05-03T19:57:48.025Z,11.30
2023-05-03T20:00:15.866Z,11.20
2023-05-03T20:02:42.557Z,11.10
2023-05-03T20:05:09.695Z,11.00
2023-05-03T20:07:37.103Z,11.00
2023-05-03T20:10:05.529Z,10.90
2023-05-03T20:12:33.681Z,10.80
2023-05-03T20:15:00.570Z,10.70
2023-05-03T20:17:27.167Z,10.70
2023-05-03T20:19:53.784Z,10.70
2023-05-03T20:22:20.294Z,10.60
2023-05-03T20:24:46.892Z,10.60
2023-05-03T20:27:13.408Z,10.50
2023-05-03T20:29:39.933Z,10.50
2023-05-03T20:32:06.602Z,10.40
2023-05-03T20:34:33.240Z,10.30
2023-05-03T20:36:59.917Z,10.20
2023-05-03T20:39:26.788Z,10.20
2023-05-03T20:41:53.293Z,10.10
2023-05-03T20:44:19.841Z,10.00
2023-05-03T20:46:46.391Z,9.90
2023-05-03T20:49:13.205Z,9.90
2023-05-03T20:51:39.707Z,9.80
2023-05-03T20:54:06.501Z,9.60
2023-05-03T20:56:33.473Z,9.50
2023-05-03T20:59:00.230Z,9.40
2023-05-03T21:01:26.800Z,9.30
2023-05-03T21:03:55.311Z,9.20
2023-05-03T21:06:21.944Z,9.20
2023-05-03T21:08:48.888Z,9.10
2023-05-03T21:11:15.447Z,9.00
2023-05-03T21:13:42.546Z,9.00
2023-05-03T21:16:09.377Z,9.00
2023-05-03T21:18:35.939Z,8.90
2023-05-03T21:21:02.545Z,8.80
2023-05-03T21:23:29.294Z,8.80
2023-05-03T21:25:56.491Z,8.70
2023-05-03T21:28:23.165Z,8.70
2023-05-03T21:30:49.813Z,8.60
2023-05-03T21:33:18.802Z,8.60
2023-05-03T21:35:45.733Z,8.60
2023-05-03T21:38:12.326Z,8.50
2023-05-03T21:40:38.857Z,8.40
2023-05-03T21:43:06.687Z,8.40
2023-05-03T21:45:33.252Z,8.30
2023-05-03T21:48:00.279Z,8.20
2023-05-03T21:50:26.832Z,8.20
2023-05-03T21:52:53.530Z,8.20
2023-05-03T21:55:20.438Z,8.10
2023-05-03T21:57:47.145Z,8.10
2023-05-03T22:00:18.368Z,8.10
2023-05-03T22:02:45.075Z,8.10
2023-05-03T22:05:12.967Z,8.10
2023-05-03T22:07:39.511Z,8.10
2023-05-03T22:10:06.773Z,8.00
2023-05-03T22:12:33.541Z,7.90
2023-05-03T22:15:00.246Z,7.90
2023-05-03T22:17:27.057Z,7.80
2023-05-03T22:19:53.871Z,7.70
2023-05-03T22:22:20.530Z,7.70
2023-05-03T22:24:47.046Z,7.80
2023-05-03T22:27:13.567Z,7.80
2023-05-03T22:29:40.443Z,7.90
2023-05-03T22:32:07.209Z,7.90
2023-05-03T22:34:33.789Z,7.80
2023-05-03T22:37:00.307Z,7.90
2023-05-03T22:39:26.957Z,7.80
2023-05-03T22:41:53.487Z,7.80
2023-05-03T22:44:20.031Z,7.80
2023-05-03T22:46:46.772Z,7.80
2023-05-03T22:49:13.523Z,7.80
2023-05-03T22:51:40.050Z,7.70
2023-05-03T22:54:06.537Z,7.60
2023-05-03T22:56:33.117Z,7.60
2023-05-03T22:58:59.628Z,7.60
2023-05-03T23:01:27.028Z,7.60
2023-05-03T23:03:53.839Z,7.60
2023-05-03T23:06:20.637Z,7.60
2023-05-03T23:08:47.327Z,7.60
2023-05-03T23:11:14.797Z,7.60
2023-05-03T23:13:41.551Z,7.60
2023-05-03T23:16:08.465Z,7.60
2023-05-03T23:18:35.013Z,7.50
2023-05-03T23:21:01.593Z,7.40
2023-05-03T23:23:28.882Z,7.40
2023-05-03T23:25:56.081Z,7.30
2023-05-03T23:28:23.041Z,7.30
2023-05-03T23:30:50.732Z,7.30
2023-05-03T23:33:17.730Z,7.10
2023-05-03T23:35:44.705Z,7.00
2023-05-03T23:38:11.433Z,6.90
2023-05-03T23:40:38.198Z,6.80
2023-05-03T23:43:04.762Z,6.80
2023-05-03T23:45:31.392Z,6.70
2023-05-03T23:47:57.959Z,6.60
2023-05-03T23:50:24.486Z,6.60
2023-05-03T23:52:51.478Z,6.50
2023-05-03T23:55:18.170Z,6.40
2023-05-03T23:57:44.739Z,6.30
